sensor_id;sensor_type;location;lat;lon;timestamp;temperature;humidity
12922;DHT22;6528;48.086;16.282;2022-09-30T00:01:39;23.40;89.90
12922;DHT22;6528;48.086;16.282;2022-09-30T00:04:12;23.30;89.80
12922;DHT22;6528;48.086;16.282;2022-09-30T00:06:39;23.40;89.90
12922;DHT22;6528;48.086;16.282;2022-09-30T00:09:06;23.40;89.90
12922;DHT22;6528;48.086;16.282;2022-09-30T00:11:34;23.40;89.90
12922;DHT22;6528;48.086;16.282;2022-09-30T00:14:01;23.30;89.80
12922;DHT22;6528;48.086;16.282;2022-09-30T00:16:30;23.40;89.80
12922;DHT22;6528;48.086;16.282;2022-09-30T00:18:58;23.40;89.60
12922;DHT22;6528;48.086;16.282;2022-09-30T00:21:26;23.30;89.50
12922;DHT22;6528;48.086;16.282;2022-09-30T00:23:56;23.30;89.40
12922;DHT22;6528;48.086;16.282;2022-09-30T00:26:23;23.40;89.60
12922;DHT22;6528;48.086;16.282;2022-09-30T00:28:53;23.40;89.50
12922;DHT22;6528;48.086;16.282;2022-09-30T00:31:21;23.30;89.50
12922;DHT22;6528;48.086;16.282;2022-09-30T00:33:48;23.30;89.40
12922;DHT22;6528;48.086;16.282;2022-09-30T00:36:54;23.40;89.60
12922;DHT22;6528;48.086;16.282;2022-09-30T00:39:25;23.30;89.60
12922;DHT22;6528;48.086;16.282;2022-09-30T00:41:56;23.30;89.60
12922;DHT22;6528;48.086;16.282;2022-09-30T00:50:01;23.30;89.70
12922;DHT22;6528;48.086;16.282;2022-09-30T00:52:28;23.30;89.60
12922;DHT22;6528;48.086;16.282;2022-09-30T00:54:58;23.30;89.50
12922;DHT22;6528;48.086;16.282;2022-09-30T00:57:27;23.30;89.60
12922;DHT22;6528;48.086;16.282;2022-09-30T00:59:54;23.30;89.60
12922;DHT22;6528;48.086;16.282;2022-09-30T01:02:21;23.30;89.50
12922;DHT22;6528;48.086;16.282;2022-09-30T01:04:49;23.30;89.70
12922;DHT22;6528;48.086;16.282;2022-09-30T01:07:15;23.30;89.60
12922;DHT22;6528;48.086;16.282;2022-09-30T01:09:43;23.30;89.80
12922;DHT22;6528;48.086;16.282;2022-09-30T01:12:15;23.30;89.90
12922;DHT22;6528;48.086;16.282;2022-09-30T01:14:44;23.30;89.90
12922;DHT22;6528;48.086;16.282;2022-09-30T01:17:25;23.30;89.90
12922;DHT22;6528;48.086;16.282;2022-09-30T01:23:22;23.30;90.00
12922;DHT22;6528;48.086;16.282;2022-09-30T01:31:04;23.30;90.00
12922;DHT22;6528;48.086;16.282;2022-09-30T01:33:43;23.30;90.00
12922;DHT22;6528;48.086;16.282;2022-09-30T01:45:22;23.30;90.00
12922;DHT22;6528;48.086;16.282;2022-09-30T01:56:43;23.20;90.20
12922;DHT22;6528;48.086;16.282;2022-09-30T02:02:12;23.20;90.30
12922;DHT22;6528;48.086;16.282;2022-09-30T02:04:49;23.20;90.40
12922;DHT22;6528;48.086;16.282;2022-09-30T02:07:37;23.20;90.50
12922;DHT22;6528;48.086;16.282;2022-09-30T02:10:11;23.20;90.50
12922;DHT22;6528;48.086;16.282;2022-09-30T02:12:45;23.20;90.60
12922;DHT22;6528;48.086;16.282;2022-09-30T02:15:17;23.20;90.60
12922;DHT22;6528;48.086;16.282;2022-09-30T02:18:11;23.20;90.90
12922;DHT22;6528;48.086;16.282;2022-09-30T02:20:41;23.20;90.60
12922;DHT22;6528;48.086;16.282;2022-09-30T02:23:21;23.20;90.60
12922;DHT22;6528;48.086;16.282;2022-09-30T02:26:01;23.20;90.70
12922;DHT22;6528;48.086;16.282;2022-09-30T02:28:37;23.20;90.80
12922;DHT22;6528;48.086;16.282;2022-09-30T02:31:07;23.20;90.80
12922;DHT22;6528;48.086;16.282;2022-09-30T02:33:46;23.20;90.80
12922;DHT22;6528;48.086;16.282;2022-09-30T02:36:43;23.20;90.90
12922;DHT22;6528;48.086;16.282;2022-09-30T02:39:39;23.20;90.90
12922;DHT22;6528;48.086;16.282;2022-09-30T02:42:17;23.20;90.90
12922;DHT22;6528;48.086;16.282;2022-09-30T02:44:47;23.20;90.90
12922;DHT22;6528;48.086;16.282;2022-09-30T02:58:23;23.20;91.10
12922;DHT22;6528;48.086;16.282;2022-09-30T03:00:53;23.20;91.10
12922;DHT22;6528;48.086;16.282;2022-09-30T03:03:31;23.20;91.10
12922;DHT22;6528;48.086;16.282;2022-09-30T03:06:00;23.20;91.20
12922;DHT22;6528;48.086;16.282;2022-09-30T03:08:27;23.20;91.20
12922;DHT22;6528;48.086;16.282;2022-09-30T03:10:54;23.20;91.30
12922;DHT22;6528;48.086;16.282;2022-09-30T03:19:22;23.20;91.40
12922;DHT22;6528;48.086;16.282;2022-09-30T03:30:18;23.20;91.50
12922;DHT22;6528;48.086;16.282;2022-09-30T03:46:37;23.20;91.60
12922;DHT22;6528;48.086;16.282;2022-09-30T03:49:10;23.20;91.60
12922;DHT22;6528;48.086;16.282;2022-09-30T03:51:39;23.20;91.60
12922;DHT22;6528;48.086;16.282;2022-09-30T03:54:11;23.10;91.60
12922;DHT22;6528;48.086;16.282;2022-09-30T03:56:39;23.20;91.60
12922;DHT22;6528;48.086;16.282;2022-09-30T03:59:10;23.20;91.70
12922;DHT22;6528;48.086;16.282;2022-09-30T04:01:38;23.20;91.70
12922;DHT22;6528;48.086;16.282;2022-09-30T04:04:05;23.20;91.70
12922;DHT22;6528;48.086;16.282;2022-09-30T04:06:32;23.20;91.70
12922;DHT22;6528;48.086;16.282;2022-09-30T04:08:59;23.20;91.80
12922;DHT22;6528;48.086;16.282;2022-09-30T04:11:26;23.20;91.80
12922;DHT22;6528;48.086;16.282;2022-09-30T04:13:52;23.20;91.70
12922;DHT22;6528;48.086;16.282;2022-09-30T04:16:19;23.20;91.80
12922;DHT22;6528;48.086;16.282;2022-09-30T04:18:46;23.20;91.80
12922;DHT22;6528;48.086;16.282;2022-09-30T04:21:13;23.20;91.80
12922;DHT22;6528;48.086;16.282;2022-09-30T04:23:41;23.20;91.80
12922;DHT22;6528;48.086;16.282;2022-09-30T04:26:11;23.20;91.80
12922;DHT22;6528;48.086;16.282;2022-09-30T04:28:38;23.20;91.80
12922;DHT22;6528;48.086;16.282;2022-09-30T04:31:05;23.20;91.80
12922;DHT22;6528;48.086;16.282;2022-09-30T04:33:33;23.20;91.80
12922;DHT22;6528;48.086;16.282;2022-09-30T04:36:00;23.20;91.80
12922;DHT22;6528;48.086;16.282;2022-09-30T04:38:27;23.10;91.80
12922;DHT22;6528;48.086;16.282;2022-09-30T04:40:55;23.20;91.80
12922;DHT22;6528;48.086;16.282;2022-09-30T04:43:23;23.20;91.80
12922;DHT22;6528;48.086;16.282;2022-09-30T04:45:51;23.20;91.80
12922;DHT22;6528;48.086;16.282;2022-09-30T04:48:18;23.20;91.90
12922;DHT22;6528;48.086;16.282;2022-09-30T04:50:47;23.20;91.80
12922;DHT22;6528;48.086;16.282;2022-09-30T04:53:15;23.20;91.80
12922;DHT22;6528;48.086;16.282;2022-09-30T04:55:43;23.20;91.80
12922;DHT22;6528;48.086;16.282;2022-09-30T04:58:10;23.20;91.80
12922;DHT22;6528;48.086;16.282;2022-09-30T05:00:37;23.20;91.90
12922;DHT22;6528;48.086;16.282;2022-09-30T05:03:04;23.20;91.90
12922;DHT22;6528;48.086;16.282;2022-09-30T05:05:31;23.20;91.90
12922;DHT22;6528;48.086;16.282;2022-09-30T05:08:00;23.20;91.90
12922;DHT22;6528;48.086;16.282;2022-09-30T05:10:27;23.20;91.90
12922;DHT22;6528;48.086;16.282;2022-09-30T05:12:54;23.20;91.90
12922;DHT22;6528;48.086;16.282;2022-09-30T05:15:21;23.10;91.80
12922;DHT22;6528;48.086;16.282;2022-09-30T05:17:48;23.20;91.90
12922;DHT22;6528;48.086;16.282;2022-09-30T05:20:15;23.20;91.90
12922;DHT22;6528;48.086;16.282;2022-09-30T05:22:46;23.20;92.20
12922;DHT22;6528;48.086;16.282;2022-09-30T05:25:13;23.20;91.90
12922;DHT22;6528;48.086;16.282;2022-09-30T05:27:40;23.20;91.90
12922;DHT22;6528;48.086;16.282;2022-09-30T05:30:07;23.20;91.90
12922;DHT22;6528;48.086;16.282;2022-09-30T05:32:34;23.20;91.90
12922;DHT22;6528;48.086;16.282;2022-09-30T05:35:02;23.20;92.00
12922;DHT22;6528;48.086;16.282;2022-09-30T05:37:29;23.20;92.20
12922;DHT22;6528;48.086;16.282;2022-09-30T05:39:56;23.20;92.30
12922;DHT22;6528;48.086;16.282;2022-09-30T05:42:22;23.30;92.40
12922;DHT22;6528;48.086;16.282;2022-09-30T05:44:49;23.30;92.50
12922;DHT22;6528;48.086;16.282;2022-09-30T05:47:16;23.30;92.60
12922;DHT22;6528;48.086;16.282;2022-09-30T05:49:43;23.40;92.60
12922;DHT22;6528;48.086;16.282;2022-09-30T05:52:10;23.40;92.70
12922;DHT22;6528;48.086;16.282;2022-09-30T05:54:39;23.30;92.70
12922;DHT22;6528;48.086;16.282;2022-09-30T05:57:06;23.30;92.70
12922;DHT22;6528;48.086;16.282;2022-09-30T05:59:33;23.30;92.80
12922;DHT22;6528;48.086;16.282;2022-09-30T06:02:00;23.30;92.80
12922;DHT22;6528;48.086;16.282;2022-09-30T06:04:27;23.30;92.90
12922;DHT22;6528;48.086;16.282;2022-09-30T06:06:54;23.40;92.90
12922;DHT22;6528;48.086;16.282;2022-09-30T06:09:21;23.30;92.90
12922;DHT22;6528;48.086;16.282;2022-09-30T06:11:48;23.40;93.00
12922;DHT22;6528;48.086;16.282;2022-09-30T06:14:15;23.40;93.00
12922;DHT22;6528;48.086;16.282;2022-09-30T06:16:43;23.40;93.00
12922;DHT22;6528;48.086;16.282;2022-09-30T06:19:10;23.40;93.00
12922;DHT22;6528;48.086;16.282;2022-09-30T06:21:37;23.40;93.10
12922;DHT22;6528;48.086;16.282;2022-09-30T06:24:05;23.40;93.10
12922;DHT22;6528;48.086;16.282;2022-09-30T06:26:38;23.40;93.10
12922;DHT22;6528;48.086;16.282;2022-09-30T06:29:05;23.40;93.10
12922;DHT22;6528;48.086;16.282;2022-09-30T06:31:31;23.40;93.10
12922;DHT22;6528;48.086;16.282;2022-09-30T06:33:58;23.40;93.20
12922;DHT22;6528;48.086;16.282;2022-09-30T06:36:25;23.50;93.20
12922;DHT22;6528;48.086;16.282;2022-09-30T06:38:54;23.40;93.20
12922;DHT22;6528;48.086;16.282;2022-09-30T06:41:21;23.40;93.20
12922;DHT22;6528;48.086;16.282;2022-09-30T06:43:54;23.40;93.30
12922;DHT22;6528;48.086;16.282;2022-09-30T06:46:25;23.50;93.30
12922;DHT22;6528;48.086;16.282;2022-09-30T06:48:57;23.50;93.30
12922;DHT22;6528;48.086;16.282;2022-09-30T06:51:38;23.40;93.30
12922;DHT22;6528;48.086;16.282;2022-09-30T06:54:04;23.50;93.40
12922;DHT22;6528;48.086;16.282;2022-09-30T06:56:31;23.50;93.40
12922;DHT22;6528;48.086;16.282;2022-09-30T06:58:58;23.50;93.40
12922;DHT22;6528;48.086;16.282;2022-09-30T07:01:25;23.50;93.40
12922;DHT22;6528;48.086;16.282;2022-09-30T07:03:53;23.50;93.40
12922;DHT22;6528;48.086;16.282;2022-09-30T07:06:24;23.50;93.40
12922;DHT22;6528;48.086;16.282;2022-09-30T07:08:51;23.50;93.40
12922;DHT22;6528;48.086;16.282;2022-09-30T07:11:20;23.50;93.40
12922;DHT22;6528;48.086;16.282;2022-09-30T07:13:47;23.50;93.40
12922;DHT22;6528;48.086;16.282;2022-09-30T07:16:16;23.50;93.50
12922;DHT22;6528;48.086;16.282;2022-09-30T07:18:44;23.50;93.50
12922;DHT22;6528;48.086;16.282;2022-09-30T07:21:13;23.50;93.50
12922;DHT22;6528;48.086;16.282;2022-09-30T07:23:43;23.50;93.50
12922;DHT22;6528;48.086;16.282;2022-09-30T07:26:14;23.60;93.50
12922;DHT22;6528;48.086;16.282;2022-09-30T07:28:41;23.50;93.40
12922;DHT22;6528;48.086;16.282;2022-09-30T07:31:11;23.50;93.40
12922;DHT22;6528;48.086;16.282;2022-09-30T07:33:58;23.60;93.40
12922;DHT22;6528;48.086;16.282;2022-09-30T07:36:25;23.50;93.40
12922;DHT22;6528;48.086;16.282;2022-09-30T07:38:58;23.50;93.40
12922;DHT22;6528;48.086;16.282;2022-09-30T07:41:26;23.50;93.30
12922;DHT22;6528;48.086;16.282;2022-09-30T07:43:55;23.50;93.30
12922;DHT22;6528;48.086;16.282;2022-09-30T07:46:29;23.60;93.30
12922;DHT22;6528;48.086;16.282;2022-09-30T07:48:58;23.60;93.20
12922;DHT22;6528;48.086;16.282;2022-09-30T07:51:36;23.60;93.10
12922;DHT22;6528;48.086;16.282;2022-09-30T07:54:10;23.60;93.10
12922;DHT22;6528;48.086;16.282;2022-09-30T07:56:38;23.60;93.10
12922;DHT22;6528;48.086;16.282;2022-09-30T07:59:27;23.60;93.00
12922;DHT22;6528;48.086;16.282;2022-09-30T08:01:54;23.60;93.00
12922;DHT22;6528;48.086;16.282;2022-09-30T08:04:22;23.60;93.00
12922;DHT22;6528;48.086;16.282;2022-09-30T08:06:55;23.60;92.90
12922;DHT22;6528;48.086;16.282;2022-09-30T08:09:24;23.60;92.90
12922;DHT22;6528;48.086;16.282;2022-09-30T08:11:51;23.60;92.80
12922;DHT22;6528;48.086;16.282;2022-09-30T08:14:24;23.60;92.80
12922;DHT22;6528;48.086;16.282;2022-09-30T08:16:51;23.60;92.80
12922;DHT22;6528;48.086;16.282;2022-09-30T08:19:20;23.60;92.70
12922;DHT22;6528;48.086;16.282;2022-09-30T08:21:47;23.60;92.70
12922;DHT22;6528;48.086;16.282;2022-09-30T08:24:15;23.60;92.70
12922;DHT22;6528;48.086;16.282;2022-09-30T08:26:42;23.60;92.60
12922;DHT22;6528;48.086;16.282;2022-09-30T08:29:09;23.60;92.60
12922;DHT22;6528;48.086;16.282;2022-09-30T08:31:45;23.60;92.60
12922;DHT22;6528;48.086;16.282;2022-09-30T08:34:12;23.60;92.60
12922;DHT22;6528;48.086;16.282;2022-09-30T08:36:39;23.60;92.50
12922;DHT22;6528;48.086;16.282;2022-09-30T08:39:06;23.60;92.50
12922;DHT22;6528;48.086;16.282;2022-09-30T08:44:41;23.60;92.40
12922;DHT22;6528;48.086;16.282;2022-09-30T08:50:22;23.60;92.40
12922;DHT22;6528;48.086;16.282;2022-09-30T08:52:52;23.60;92.30
12922;DHT22;6528;48.086;16.282;2022-09-30T08:55:30;23.60;92.30
12922;DHT22;6528;48.086;16.282;2022-09-30T08:57:57;23.60;92.30
12922;DHT22;6528;48.086;16.282;2022-09-30T09:00:24;23.60;92.20
12922;DHT22;6528;48.086;16.282;2022-09-30T09:02:55;23.60;92.20
12922;DHT22;6528;48.086;16.282;2022-09-30T09:06:07;23.60;92.20
12922;DHT22;6528;48.086;16.282;2022-09-30T09:09:00;23.60;92.10
12922;DHT22;6528;48.086;16.282;2022-09-30T09:17:01;23.60;92.00
12922;DHT22;6528;48.086;16.282;2022-09-30T09:19:49;23.60;91.90
12922;DHT22;6528;48.086;16.282;2022-09-30T09:22:20;23.60;91.90
12922;DHT22;6528;48.086;16.282;2022-09-30T09:24:50;23.60;91.90
12922;DHT22;6528;48.086;16.282;2022-09-30T09:27:44;23.60;91.90
12922;DHT22;6528;48.086;16.282;2022-09-30T09:30:16;23.60;91.90
12922;DHT22;6528;48.086;16.282;2022-09-30T09:32:52;23.60;91.90
12922;DHT22;6528;48.086;16.282;2022-09-30T09:35:28;23.60;91.80
12922;DHT22;6528;48.086;16.282;2022-09-30T09:48:42;23.70;91.70
12922;DHT22;6528;48.086;16.282;2022-09-30T09:51:16;23.70;91.70
12922;DHT22;6528;48.086;16.282;2022-09-30T09:53:52;23.70;91.60
12922;DHT22;6528;48.086;16.282;2022-09-30T09:56:21;23.70;91.60
12922;DHT22;6528;48.086;16.282;2022-09-30T09:59:04;23.70;91.60
12922;DHT22;6528;48.086;16.282;2022-09-30T10:01:32;23.80;91.60
12922;DHT22;6528;48.086;16.282;2022-09-30T10:04:07;23.80;91.60
12922;DHT22;6528;48.086;16.282;2022-09-30T10:09:34;23.80;91.50
12922;DHT22;6528;48.086;16.282;2022-09-30T10:14:47;23.80;91.50
12922;DHT22;6528;48.086;16.282;2022-09-30T10:17:31;23.80;91.50
12922;DHT22;6528;48.086;16.282;2022-09-30T10:22:29;23.80;91.50
12922;DHT22;6528;48.086;16.282;2022-09-30T10:25:14;23.70;91.40
12922;DHT22;6528;48.086;16.282;2022-09-30T10:27:57;23.80;91.50
12922;DHT22;6528;48.086;16.282;2022-09-30T10:30:49;23.80;91.50
12922;DHT22;6528;48.086;16.282;2022-09-30T10:38:34;23.80;91.40
12922;DHT22;6528;48.086;16.282;2022-09-30T10:41:04;23.80;91.40
12922;DHT22;6528;48.086;16.282;2022-09-30T10:43:39;23.80;91.40
12922;DHT22;6528;48.086;16.282;2022-09-30T10:46:08;23.80;91.40
12922;DHT22;6528;48.086;16.282;2022-09-30T10:48:54;23.80;91.30
12922;DHT22;6528;48.086;16.282;2022-09-30T10:51:26;23.80;91.40
12922;DHT22;6528;48.086;16.282;2022-09-30T10:53:54;23.80;91.40
12922;DHT22;6528;48.086;16.282;2022-09-30T10:56:53;23.80;91.30
12922;DHT22;6528;48.086;16.282;2022-09-30T10:59:35;23.80;91.30
12922;DHT22;6528;48.086;16.282;2022-09-30T11:05:21;23.90;91.30
12922;DHT22;6528;48.086;16.282;2022-09-30T11:13:25;23.90;91.30
12922;DHT22;6528;48.086;16.282;2022-09-30T11:16:00;23.80;91.20
12922;DHT22;6528;48.086;16.282;2022-09-30T11:18:37;23.90;91.30
12922;DHT22;6528;48.086;16.282;2022-09-30T11:21:17;23.80;91.30
12922;DHT22;6528;48.086;16.282;2022-09-30T11:23:53;23.90;91.40
12922;DHT22;6528;48.086;16.282;2022-09-30T11:26:56;23.90;91.40
12922;DHT22;6528;48.086;16.282;2022-09-30T11:34:35;23.90;91.50
12922;DHT22;6528;48.086;16.282;2022-09-30T11:37:34;23.80;91.50
12922;DHT22;6528;48.086;16.282;2022-09-30T11:40:21;23.80;91.60
12922;DHT22;6528;48.086;16.282;2022-09-30T11:48:32;23.80;91.70
12922;DHT22;6528;48.086;16.282;2022-09-30T11:59:33;23.80;91.70
12922;DHT22;6528;48.086;16.282;2022-09-30T12:02:03;23.90;91.80
12922;DHT22;6528;48.086;16.282;2022-09-30T12:04:36;23.90;91.80
12922;DHT22;6528;48.086;16.282;2022-09-30T12:07:16;23.90;91.80
12922;DHT22;6528;48.086;16.282;2022-09-30T12:09:57;23.90;91.90
12922;DHT22;6528;48.086;16.282;2022-09-30T12:12:26;23.90;91.90
12922;DHT22;6528;48.086;16.282;2022-09-30T12:15:02;23.90;91.90
12922;DHT22;6528;48.086;16.282;2022-09-30T12:17:37;23.90;91.90
12922;DHT22;6528;48.086;16.282;2022-09-30T12:22:44;23.90;92.30
12922;DHT22;6528;48.086;16.282;2022-09-30T12:25:16;24.00;92.00
12922;DHT22;6528;48.086;16.282;2022-09-30T12:27:50;23.90;92.30
12922;DHT22;6528;48.086;16.282;2022-09-30T12:30:20;24.00;92.60
12922;DHT22;6528;48.086;16.282;2022-09-30T12:41:18;24.10;93.10
12922;DHT22;6528;48.086;16.282;2022-09-30T12:44:24;24.20;93.30
12922;DHT22;6528;48.086;16.282;2022-09-30T12:47:21;24.20;93.40
12922;DHT22;6528;48.086;16.282;2022-09-30T12:49:54;24.30;93.60
12922;DHT22;6528;48.086;16.282;2022-09-30T12:52:24;24.30;93.80
12922;DHT22;6528;48.086;16.282;2022-09-30T12:55:03;24.40;94.00
12922;DHT22;6528;48.086;16.282;2022-09-30T12:57:34;24.40;94.00
12922;DHT22;6528;48.086;16.282;2022-09-30T13:00:19;24.40;94.00
12922;DHT22;6528;48.086;16.282;2022-09-30T13:08:22;24.50;94.10
12922;DHT22;6528;48.086;16.282;2022-09-30T13:10:58;24.50;94.00
12922;DHT22;6528;48.086;16.282;2022-09-30T13:13:29;24.50;94.00
12922;DHT22;6528;48.086;16.282;2022-09-30T13:15:58;24.50;94.00
12922;DHT22;6528;48.086;16.282;2022-09-30T13:18:56;24.60;94.10
12922;DHT22;6528;48.086;16.282;2022-09-30T13:21:19;24.60;94.10
12922;DHT22;6528;48.086;16.282;2022-09-30T13:23:51;24.60;94.10
12922;DHT22;6528;48.086;16.282;2022-09-30T13:31:30;24.60;94.10
12922;DHT22;6528;48.086;16.282;2022-09-30T13:41:41;24.70;94.20
12922;DHT22;6528;48.086;16.282;2022-09-30T13:44:19;24.70;94.20
12922;DHT22;6528;48.086;16.282;2022-09-30T13:46:59;24.70;94.20
12922;DHT22;6528;48.086;16.282;2022-09-30T13:49:42;24.70;94.20
12922;DHT22;6528;48.086;16.282;2022-09-30T13:52:20;24.70;94.20
12922;DHT22;6528;48.086;16.282;2022-09-30T13:54:48;24.80;94.30
12922;DHT22;6528;48.086;16.282;2022-09-30T13:57:25;24.80;94.30
12922;DHT22;6528;48.086;16.282;2022-09-30T14:00:13;24.80;94.30
12922;DHT22;6528;48.086;16.282;2022-09-30T14:05:34;24.80;94.30
12922;DHT22;6528;48.086;16.282;2022-09-30T14:08:15;24.80;94.30
12922;DHT22;6528;48.086;16.282;2022-09-30T14:11:10;24.80;94.30
12922;DHT22;6528;48.086;16.282;2022-09-30T14:21:57;24.80;94.50
12922;DHT22;6528;48.086;16.282;2022-09-30T14:24:26;24.80;94.40
12922;DHT22;6528;48.086;16.282;2022-09-30T14:32:47;24.80;94.60
12922;DHT22;6528;48.086;16.282;2022-09-30T14:35:20;24.80;94.50
12922;DHT22;6528;48.086;16.282;2022-09-30T14:37:53;24.80;94.30
12922;DHT22;6528;48.086;16.282;2022-09-30T14:40:30;24.80;93.80
12922;DHT22;6528;48.086;16.282;2022-09-30T14:43:06;24.80;93.30
12922;DHT22;6528;48.086;16.282;2022-09-30T14:45:39;24.80;93.30
12922;DHT22;6528;48.086;16.282;2022-09-30T14:48:17;24.70;93.00
12922;DHT22;6528;48.086;16.282;2022-09-30T14:50:51;24.70;92.60
12922;DHT22;6528;48.086;16.282;2022-09-30T14:53:33;24.70;92.30
12922;DHT22;6528;48.086;16.282;2022-09-30T14:56:03;24.60;92.00
12922;DHT22;6528;48.086;16.282;2022-09-30T14:58:45;24.60;92.10
12922;DHT22;6528;48.086;16.282;2022-09-30T15:01:15;24.60;92.00
12922;DHT22;6528;48.086;16.282;2022-09-30T15:03:59;24.60;91.70
12922;DHT22;6528;48.086;16.282;2022-09-30T15:06:29;24.60;91.50
12922;DHT22;6528;48.086;16.282;2022-09-30T15:11:40;24.50;91.20
12922;DHT22;6528;48.086;16.282;2022-09-30T15:14:17;24.50;91.30
12922;DHT22;6528;48.086;16.282;2022-09-30T15:16:49;24.50;91.20
12922;DHT22;6528;48.086;16.282;2022-09-30T15:19:27;24.40;91.20
12922;DHT22;6528;48.086;16.282;2022-09-30T15:21:57;24.40;91.00
12922;DHT22;6528;48.086;16.282;2022-09-30T15:24:29;24.40;90.90
12922;DHT22;6528;48.086;16.282;2022-09-30T15:26:58;24.40;90.80
12922;DHT22;6528;48.086;16.282;2022-09-30T15:29:25;24.40;90.60
12922;DHT22;6528;48.086;16.282;2022-09-30T15:32:00;24.40;90.50
12922;DHT22;6528;48.086;16.282;2022-09-30T15:34:29;24.40;90.50
12922;DHT22;6528;48.086;16.282;2022-09-30T15:37:01;24.40;90.40
12922;DHT22;6528;48.086;16.282;2022-09-30T15:39:41;24.30;90.40
12922;DHT22;6528;48.086;16.282;2022-09-30T15:42:37;24.30;90.40
12922;DHT22;6528;48.086;16.282;2022-09-30T15:45:35;24.30;90.30
12922;DHT22;6528;48.086;16.282;2022-09-30T15:56:30;24.20;90.50
12922;DHT22;6528;48.086;16.282;2022-09-30T16:01:43;24.20;90.50
12922;DHT22;6528;48.086;16.282;2022-09-30T16:06:47;24.20;90.60
12922;DHT22;6528;48.086;16.282;2022-09-30T16:12:06;24.20;90.60
12922;DHT22;6528;48.086;16.282;2022-09-30T16:19:55;24.20;90.60
12922;DHT22;6528;48.086;16.282;2022-09-30T16:27:36;24.20;90.70
12922;DHT22;6528;48.086;16.282;2022-09-30T16:30:04;24.20;90.60
12922;DHT22;6528;48.086;16.282;2022-09-30T16:32:36;24.10;90.50
12922;DHT22;6528;48.086;16.282;2022-09-30T16:35:04;24.10;90.40
12922;DHT22;6528;48.086;16.282;2022-09-30T16:37:31;24.10;90.40
12922;DHT22;6528;48.086;16.282;2022-09-30T16:40:05;24.10;90.30
12922;DHT22;6528;48.086;16.282;2022-09-30T16:42:35;24.10;90.30
12922;DHT22;6528;48.086;16.282;2022-09-30T16:45:02;24.00;90.20
12922;DHT22;6528;48.086;16.282;2022-09-30T16:47:29;24.10;90.20
12922;DHT22;6528;48.086;16.282;2022-09-30T16:49:56;24.00;89.90
12922;DHT22;6528;48.086;16.282;2022-09-30T16:52:24;24.00;89.90
12922;DHT22;6528;48.086;16.282;2022-09-30T16:54:51;24.00;90.00
12922;DHT22;6528;48.086;16.282;2022-09-30T16:57:18;23.90;90.00
12922;DHT22;6528;48.086;16.282;2022-09-30T16:59:44;24.00;90.00
12922;DHT22;6528;48.086;16.282;2022-09-30T17:02:13;23.90;90.10
12922;DHT22;6528;48.086;16.282;2022-09-30T17:04:40;23.90;90.10
12922;DHT22;6528;48.086;16.282;2022-09-30T17:10:58;23.90;90.00
12922;DHT22;6528;48.086;16.282;2022-09-30T17:13:24;23.80;89.40
12922;DHT22;6528;48.086;16.282;2022-09-30T17:15:52;23.80;89.30
12922;DHT22;6528;48.086;16.282;2022-09-30T17:18:20;23.80;89.50
12922;DHT22;6528;48.086;16.282;2022-09-30T17:20:48;23.80;89.30
12922;DHT22;6528;48.086;16.282;2022-09-30T17:23:20;23.70;89.50
12922;DHT22;6528;48.086;16.282;2022-09-30T17:25:47;23.70;89.70
12922;DHT22;6528;48.086;16.282;2022-09-30T17:28:14;23.70;89.70
12922;DHT22;6528;48.086;16.282;2022-09-30T17:30:43;23.70;90.00
12922;DHT22;6528;48.086;16.282;2022-09-30T17:33:11;23.70;90.00
12922;DHT22;6528;48.086;16.282;2022-09-30T17:35:38;23.70;90.00
12922;DHT22;6528;48.086;16.282;2022-09-30T17:38:10;23.70;89.80
12922;DHT22;6528;48.086;16.282;2022-09-30T17:40:38;23.70;89.80
12922;DHT22;6528;48.086;16.282;2022-09-30T17:43:23;23.70;89.80
12922;DHT22;6528;48.086;16.282;2022-09-30T17:45:50;23.70;90.20
12922;DHT22;6528;48.086;16.282;2022-09-30T17:48:18;23.70;90.00
12922;DHT22;6528;48.086;16.282;2022-09-30T17:50:46;23.70;90.00
12922;DHT22;6528;48.086;16.282;2022-09-30T17:53:15;23.60;90.00
12922;DHT22;6528;48.086;16.282;2022-09-30T17:55:46;23.60;90.10
12922;DHT22;6528;48.086;16.282;2022-09-30T17:58:15;23.60;90.10
12922;DHT22;6528;48.086;16.282;2022-09-30T18:00:42;23.60;90.20
12922;DHT22;6528;48.086;16.282;2022-09-30T18:03:09;23.60;90.10
12922;DHT22;6528;48.086;16.282;2022-09-30T18:05:37;23.60;90.10
12922;DHT22;6528;48.086;16.282;2022-09-30T18:08:03;23.60;90.40
12922;DHT22;6528;48.086;16.282;2022-09-30T18:10:31;23.60;90.60
12922;DHT22;6528;48.086;16.282;2022-09-30T18:12:57;23.60;90.60
12922;DHT22;6528;48.086;16.282;2022-09-30T18:15:25;23.60;90.60
12922;DHT22;6528;48.086;16.282;2022-09-30T18:17:52;23.60;90.60
12922;DHT22;6528;48.086;16.282;2022-09-30T18:20:19;23.60;90.60
12922;DHT22;6528;48.086;16.282;2022-09-30T18:22:51;23.60;90.60
12922;DHT22;6528;48.086;16.282;2022-09-30T18:25:17;23.60;90.60
12922;DHT22;6528;48.086;16.282;2022-09-30T18:27:55;23.60;90.70
12922;DHT22;6528;48.086;16.282;2022-09-30T18:30:22;23.60;90.70
12922;DHT22;6528;48.086;16.282;2022-09-30T18:32:51;23.60;90.70
12922;DHT22;6528;48.086;16.282;2022-09-30T18:35:21;23.60;91.10
12922;DHT22;6528;48.086;16.282;2022-09-30T18:37:48;23.60;90.80
12922;DHT22;6528;48.086;16.282;2022-09-30T18:40:17;23.60;90.80
12922;DHT22;6528;48.086;16.282;2022-09-30T18:42:45;23.60;90.80
12922;DHT22;6528;48.086;16.282;2022-09-30T18:45:12;23.60;90.80
12922;DHT22;6528;48.086;16.282;2022-09-30T18:47:39;23.50;90.70
12922;DHT22;6528;48.086;16.282;2022-09-30T18:50:09;23.50;90.70
12922;DHT22;6528;48.086;16.282;2022-09-30T18:52:36;23.60;90.80
12922;DHT22;6528;48.086;16.282;2022-09-30T18:55:03;23.50;90.70
12922;DHT22;6528;48.086;16.282;2022-09-30T18:57:30;23.50;90.70
12922;DHT22;6528;48.086;16.282;2022-09-30T18:59:57;23.50;90.80
12922;DHT22;6528;48.086;16.282;2022-09-30T19:02:24;23.50;90.80
12922;DHT22;6528;48.086;16.282;2022-09-30T19:04:53;23.50;90.90
12922;DHT22;6528;48.086;16.282;2022-09-30T19:07:25;23.50;91.00
12922;DHT22;6528;48.086;16.282;2022-09-30T19:09:52;23.50;91.20
12922;DHT22;6528;48.086;16.282;2022-09-30T19:12:19;23.50;91.30
12922;DHT22;6528;48.086;16.282;2022-09-30T19:14:46;23.50;91.40
12922;DHT22;6528;48.086;16.282;2022-09-30T19:17:14;23.50;91.50
12922;DHT22;6528;48.086;16.282;2022-09-30T19:19:41;23.40;91.60
12922;DHT22;6528;48.086;16.282;2022-09-30T19:22:09;23.40;91.70
12922;DHT22;6528;48.086;16.282;2022-09-30T19:24:36;23.40;91.80
12922;DHT22;6528;48.086;16.282;2022-09-30T19:27:05;23.40;91.90
12922;DHT22;6528;48.086;16.282;2022-09-30T19:29:32;23.40;91.90
12922;DHT22;6528;48.086;16.282;2022-09-30T19:31:59;23.40;91.90
12922;DHT22;6528;48.086;16.282;2022-09-30T19:34:26;23.40;92.00
12922;DHT22;6528;48.086;16.282;2022-09-30T19:36:58;23.40;92.10